• Join FlightAware (Why Join?)
  • Login
  • US Flag 
08:07AM EDT


 

Airport Tracker/Info


-or-


 

Live Flight TrackerFlight Track Log ✈ USC108 ✈ 25-Apr-2013 ✈ KLCK - KJVY

Flight Track Log - Related Links

Times and Time Zones

All times are in EDT time to prevent confusion due to time zone crossing. See the USC108 flight status page for this flight to view local times or setup timezone preferences in your user account.

Time Position Orientation Groundspeed Altitude Reporting Facility
EDT Latitude Longitude Course Direction KTS MPH feet Rate Location/Type
11:02PM 39.8036 -82.9419 230° Southwest 113 130 1,200  Level Indianapolis Center
11:03PM 39.7708 -82.9922 230° Southwest 138 159 3,100 1,260 Climbing Indianapolis Center
11:04PM 39.7617 -83.0072 232° Southwest 128 147 3,800 1,560 Climbing Indianapolis Center
11:04PM 39.7492 -83.0333 238° Southwest 132 152 4,700 1,440 Climbing Indianapolis Center
11:05PM 39.7417 -83.0519 242° Southwest 125 144 5,300 1,080 Climbing Indianapolis Center
11:05PM 39.7367 -83.0644 243° Southwest 119 137 5,700 660 Climbing Indianapolis Center
11:06PM 39.7250 -83.0878 237° Southwest 116 133 6,000 300 Climbing Indianapolis Center
11:06PM 39.7172 -83.1028 236° Southwest 144 166 6,000  Level Indianapolis Center
11:07PM 39.7003 -83.1303 231° Southwest 136 157 6,000  Level Indianapolis Center
11:07PM 39.6936 -83.1433 236° Southwest 154 177 6,000  Level Indianapolis Center
11:08PM 39.6783 -83.1800 242° Southwest 154 177 6,000  Level Indianapolis Center
11:09PM 39.6547 -83.2294 238° Southwest 158 182 6,000  Level Indianapolis Center
11:10PM 39.6306 -83.2783 237° Southwest 159 183 6,000  Level Indianapolis Center
11:11PM 39.6050 -83.3306 238° Southwest 162 186 6,000  Level Indianapolis Center
11:12PM 39.5817 -83.3786 238° Southwest 162 186 6,000  Level Indianapolis Center
11:13PM 39.5569 -83.4281 237° Southwest 162 186 6,000  Level Indianapolis Center
11:14PM 39.5319 -83.4789 237° Southwest 163 188 6,000  Level Indianapolis Center
11:15PM 39.5069 -83.5283 237° Southwest 163 188 6,000  Level Indianapolis Center
11:16PM 39.4819 -83.5808 238° Southwest 162 186 6,000  Level Indianapolis Center
11:17PM 39.4572 -83.6292 236° Southwest 164 189 6,000  Level Indianapolis Center
11:17PM 39.4500 -83.6444 239° Southwest 165 190 6,000  Level Indianapolis Center
11:18PM 39.4319 -83.6797 236° Southwest 165 190 6,000  Level Indianapolis Center
11:18PM 39.4231 -83.6978 237° Southwest 165 190 6,000  Level Indianapolis Center
11:19PM 39.3986 -83.7461 237° Southwest 164 189 6,000  Level Indianapolis Center
11:20PM 39.3719 -83.7939 234° Southwest 162 186 6,000  Level Indianapolis Center
11:21PM 39.3561 -83.8292 240° Southwest 164 189 6,000  Level Indianapolis Center
11:22PM 39.3314 -83.8794 238° Southwest 164 189 6,000  Level Indianapolis Center
11:23PM 39.3064 -83.9297 237° Southwest 165 190 6,000  Level Indianapolis Center
11:24PM 39.2808 -83.9800 237° Southwest 166 191 6,000  Level Indianapolis Center
11:25PM 39.2553 -84.0306 237° Southwest 166 191 6,000  Level Indianapolis Center
11:26PM 39.2294 -84.0811 237° Southwest 166 191 6,000  Level Indianapolis Center
11:27PM 39.1994 -84.1392 236° Southwest 166 191 6,000  Level Indianapolis Center
11:28PM 39.1733 -84.1897 236° Southwest 167 192 6,000  Level Indianapolis Center
11:29PM 39.1489 -84.2414 239° Southwest 167 192 6,000  Level Indianapolis Center
11:30PM 39.1228 -84.2908 236° Southwest 166 191 6,000  Level Indianapolis Center
11:31PM 39.0967 -84.3408 236° Southwest 167 192 6,000  Level Indianapolis Center
11:32PM 39.0719 -84.3911 238° Southwest 165 190 6,000  Level Indianapolis Center
11:33PM 39.0500 -84.4167 222° Southwest 167 192 6,000  Level Cincinnati TRACON
11:34PM 39.0333 -84.4667 247° West 167 192 6,000  Level Cincinnati TRACON
11:35PM 39.0000 -84.5167 229° Southwest 167 192 6,000  Level Cincinnati TRACON
11:36PM 38.9833 -84.5667 247° West 166 191 6,000  Level Cincinnati TRACON
11:37PM 38.9500 -84.6167 229° Southwest 169 194 6,000  Level Cincinnati TRACON
11:38PM 38.9333 -84.6667 247° West 167 192 6,000  Level Cincinnati TRACON
11:39PM 38.9000 -84.7167 229° Southwest 168 193 6,000  Level Cincinnati TRACON
11:40PM 38.8833 -84.7667 247° West 167 192 6,000  Level Cincinnati TRACON
11:41PM 38.8631 -84.7933 226° Southwest 171 197 6,000  Level Indianapolis Center
11:42PM 38.8383 -84.8456 239° Southwest 170 196 6,000  Level Indianapolis Center
11:43PM 38.8125 -84.8956 236° Southwest 169 194 6,000  Level Indianapolis Center
11:44PM 38.7867 -84.9447 236° Southwest 168 193 6,000  Level Indianapolis Center
11:45PM 38.7594 -84.9950 235° Southwest 168 193 6,000  Level Indianapolis Center
11:46PM 38.7331 -85.0458 236° Southwest 169 194 6,000  Level Indianapolis Center
11:47PM 38.7022 -85.1056 237° Southwest 169 194 6,000  Level Indianapolis Center
11:48PM 38.6753 -85.1572 236° Southwest 172 198 6,000  Level Indianapolis Center
11:49PM 38.6481 -85.2072 235° Southwest 171 197 6,000  Level Indianapolis Center
11:50PM 38.6225 -85.2567 237° Southwest 173 199 6,000  Level Indianapolis Center
11:51PM 38.5944 -85.3081 235° Southwest 174 200 6,000  Level Indianapolis Center
11:52PM 38.5689 -85.3600 238° Southwest 173 199 6,000 -240 Level Indianapolis Center
11:53PM 38.5419 -85.4128 237° Southwest 175 201 5,600 -720 Descending Indianapolis Center
11:54PM 38.5167 -85.4708 241° Southwest 180 207 4,600 -780 Descending Indianapolis Center
11:55PM 38.4894 -85.5239 237° Southwest 182 209 4,100 -540 Descending Indianapolis Center